sensor_id;sensor_type;location;lat;lon;timestamp;P1;durP1;ratioP1;P2;durP2;ratioP2
69523;SDS011;56723;42.694;23.286;2023-02-19T00:01:29;34.03;;;18.80;;
69523;SDS011;56723;42.694;23.286;2023-02-19T00:04:14;34.75;;;20.35;;
69523;SDS011;56723;42.694;23.286;2023-02-19T00:06:43;43.35;;;23.30;;
69523;SDS011;56723;42.694;23.286;2023-02-19T00:09:12;37.97;;;19.70;;
69523;SDS011;56723;42.694;23.286;2023-02-19T00:11:41;41.00;;;22.13;;
69523;SDS011;56723;42.694;23.286;2023-02-19T00:14:09;43.53;;;22.07;;
69523;SDS011;56723;42.694;23.286;2023-02-19T00:16:40;37.57;;;20.17;;
69523;SDS011;56723;42.694;23.286;2023-02-19T00:19:09;45.73;;;24.60;;
69523;SDS011;56723;42.694;23.286;2023-02-19T00:21:38;39.43;;;22.07;;
69523;SDS011;56723;42.694;23.286;2023-02-19T00:24:06;40.47;;;23.17;;
69523;SDS011;56723;42.694;23.286;2023-02-19T00:26:33;47.40;;;22.13;;
69523;SDS011;56723;42.694;23.286;2023-02-19T00:29:01;55.17;;;31.17;;
69523;SDS011;56723;42.694;23.286;2023-02-19T00:31:32;49.53;;;28.57;;
69523;SDS011;56723;42.694;23.286;2023-02-19T00:34:01;47.90;;;24.87;;
69523;SDS011;56723;42.694;23.286;2023-02-19T00:36:31;55.70;;;26.83;;
69523;SDS011;56723;42.694;23.286;2023-02-19T00:39:02;50.10;;;26.93;;
69523;SDS011;56723;42.694;23.286;2023-02-19T00:41:30;42.53;;;23.00;;
69523;SDS011;56723;42.694;23.286;2023-02-19T00:43:58;37.23;;;18.17;;
69523;SDS011;56723;42.694;23.286;2023-02-19T00:46:31;45.23;;;24.37;;
69523;SDS011;56723;42.694;23.286;2023-02-19T00:49:01;39.10;;;21.77;;
69523;SDS011;56723;42.694;23.286;2023-02-19T00:51:30;43.00;;;22.23;;
69523;SDS011;56723;42.694;23.286;2023-02-19T00:56:25;31.60;;;17.97;;
69523;SDS011;56723;42.694;23.286;2023-02-19T00:58:52;30.03;;;17.27;;
69523;SDS011;56723;42.694;23.286;2023-02-19T01:01:19;36.00;;;17.63;;
69523;SDS011;56723;42.694;23.286;2023-02-19T01:03:47;37.53;;;19.37;;
69523;SDS011;56723;42.694;23.286;2023-02-19T01:06:15;37.40;;;20.10;;
69523;SDS011;56723;42.694;23.286;2023-02-19T01:08:43;35.80;;;19.55;;
69523;SDS011;56723;42.694;23.286;2023-02-19T01:11:11;32.20;;;18.37;;
69523;SDS011;56723;42.694;23.286;2023-02-19T01:13:39;34.23;;;19.23;;
69523;SDS011;56723;42.694;23.286;2023-02-19T01:16:10;31.13;;;17.50;;
69523;SDS011;56723;42.694;23.286;2023-02-19T01:18:40;33.73;;;18.33;;
69523;SDS011;56723;42.694;23.286;2023-02-19T01:21:17;30.30;;;15.87;;
69523;SDS011;56723;42.694;23.286;2023-02-19T01:23:46;27.43;;;13.77;;
69523;SDS011;56723;42.694;23.286;2023-02-19T01:26:16;24.23;;;13.90;;
69523;SDS011;56723;42.694;23.286;2023-02-19T01:28:45;24.40;;;13.53;;
69523;SDS011;56723;42.694;23.286;2023-02-19T01:31:15;19.55;;;11.45;;
69523;SDS011;56723;42.694;23.286;2023-02-19T01:33:45;26.23;;;13.73;;
69523;SDS011;56723;42.694;23.286;2023-02-19T01:36:12;25.33;;;13.60;;
69523;SDS011;56723;42.694;23.286;2023-02-19T01:38:40;20.17;;;12.17;;
69523;SDS011;56723;42.694;23.286;2023-02-19T01:41:08;24.33;;;13.83;;
69523;SDS011;56723;42.694;23.286;2023-02-19T01:46:35;23.40;;;13.00;;
69523;SDS011;56723;42.694;23.286;2023-02-19T01:51:38;19.73;;;10.40;;
69523;SDS011;56723;42.694;23.286;2023-02-19T01:54:10;28.17;;;14.20;;
69523;SDS011;56723;42.694;23.286;2023-02-19T01:56:39;24.93;;;13.40;;
69523;SDS011;56723;42.694;23.286;2023-02-19T01:59:10;22.77;;;11.23;;
69523;SDS011;56723;42.694;23.286;2023-02-19T02:01:38;17.80;;;9.03;;
69523;SDS011;56723;42.694;23.286;2023-02-19T02:04:07;20.13;;;10.70;;
69523;SDS011;56723;42.694;23.286;2023-02-19T02:09:15;23.27;;;11.30;;
69523;SDS011;56723;42.694;23.286;2023-02-19T02:12:03;19.93;;;9.90;;
69523;SDS011;56723;42.694;23.286;2023-02-19T02:14:32;16.07;;;9.13;;
69523;SDS011;56723;42.694;23.286;2023-02-19T02:20:14;22.13;;;8.83;;
69523;SDS011;56723;42.694;23.286;2023-02-19T02:25:58;15.43;;;8.83;;
69523;SDS011;56723;42.694;23.286;2023-02-19T02:31:07;21.10;;;9.00;;
69523;SDS011;56723;42.694;23.286;2023-02-19T02:33:40;17.37;;;9.33;;
69523;SDS011;56723;42.694;23.286;2023-02-19T02:36:55;15.57;;;8.50;;
69523;SDS011;56723;42.694;23.286;2023-02-19T02:39:08;14.57;;;8.83;;
69523;SDS011;56723;42.694;23.286;2023-02-19T02:41:42;18.87;;;9.70;;
69523;SDS011;56723;42.694;23.286;2023-02-19T02:44:11;13.37;;;8.80;;
69523;SDS011;56723;42.694;23.286;2023-02-19T02:46:39;16.93;;;8.00;;
69523;SDS011;56723;42.694;23.286;2023-02-19T02:49:13;17.93;;;9.43;;
69523;SDS011;56723;42.694;23.286;2023-02-19T02:51:46;20.97;;;10.13;;
69523;SDS011;56723;42.694;23.286;2023-02-19T02:54:28;16.77;;;8.90;;
69523;SDS011;56723;42.694;23.286;2023-02-19T02:57:19;16.67;;;10.13;;
69523;SDS011;56723;42.694;23.286;2023-02-19T02:59:54;15.87;;;9.17;;
69523;SDS011;56723;42.694;23.286;2023-02-19T03:02:23;20.55;;;10.60;;
69523;SDS011;56723;42.694;23.286;2023-02-19T03:08:14;17.10;;;9.68;;
69523;SDS011;56723;42.694;23.286;2023-02-19T03:10:49;22.17;;;10.70;;
69523;SDS011;56723;42.694;23.286;2023-02-19T03:13:21;20.80;;;9.47;;
69523;SDS011;56723;42.694;23.286;2023-02-19T03:16:23;22.13;;;10.77;;
69523;SDS011;56723;42.694;23.286;2023-02-19T03:19:14;25.73;;;13.77;;
69523;SDS011;56723;42.694;23.286;2023-02-19T03:21:53;26.50;;;13.97;;
69523;SDS011;56723;42.694;23.286;2023-02-19T03:24:28;28.90;;;14.03;;
69523;SDS011;56723;42.694;23.286;2023-02-19T03:27:36;24.90;;;13.23;;
69523;SDS011;56723;42.694;23.286;2023-02-19T03:30:11;27.90;;;14.90;;
69523;SDS011;56723;42.694;23.286;2023-02-19T03:33:29;23.70;;;13.67;;
69523;SDS011;56723;42.694;23.286;2023-02-19T03:35:59;26.90;;;13.43;;
69523;SDS011;56723;42.694;23.286;2023-02-19T03:38:40;23.03;;;13.47;;
69523;SDS011;56723;42.694;23.286;2023-02-19T03:46:35;26.03;;;14.33;;
69523;SDS011;56723;42.694;23.286;2023-02-19T03:49:07;26.70;;;14.93;;
69523;SDS011;56723;42.694;23.286;2023-02-19T03:51:45;26.20;;;14.57;;
69523;SDS011;56723;42.694;23.286;2023-02-19T03:56:57;29.23;;;15.97;;
69523;SDS011;56723;42.694;23.286;2023-02-19T04:02:14;16.53;;;8.77;;
69523;SDS011;56723;42.694;23.286;2023-02-19T04:04:50;15.73;;;7.53;;
69523;SDS011;56723;42.694;23.286;2023-02-19T04:07:25;14.27;;;7.37;;
69523;SDS011;56723;42.694;23.286;2023-02-19T04:09:53;17.88;;;8.40;;
69523;SDS011;56723;42.694;23.286;2023-02-19T04:12:21;10.07;;;6.10;;
69523;SDS011;56723;42.694;23.286;2023-02-19T04:14:51;9.37;;;5.43;;
69523;SDS011;56723;42.694;23.286;2023-02-19T04:17:26;13.07;;;5.80;;
69523;SDS011;56723;42.694;23.286;2023-02-19T04:19:57;9.17;;;4.40;;
69523;SDS011;56723;42.694;23.286;2023-02-19T04:22:27;8.27;;;4.17;;
69523;SDS011;56723;42.694;23.286;2023-02-19T04:24:55;7.60;;;3.93;;
69523;SDS011;56723;42.694;23.286;2023-02-19T04:27:22;6.80;;;3.33;;
69523;SDS011;56723;42.694;23.286;2023-02-19T04:29:49;7.30;;;3.80;;
69523;SDS011;56723;42.694;23.286;2023-02-19T04:32:15;4.87;;;2.87;;
69523;SDS011;56723;42.694;23.286;2023-02-19T04:34:42;5.37;;;3.30;;
69523;SDS011;56723;42.694;23.286;2023-02-19T04:37:09;4.13;;;2.83;;
69523;SDS011;56723;42.694;23.286;2023-02-19T04:39:36;8.83;;;2.80;;
69523;SDS011;56723;42.694;23.286;2023-02-19T04:42:03;8.10;;;3.70;;
69523;SDS011;56723;42.694;23.286;2023-02-19T04:44:32;7.10;;;3.37;;
69523;SDS011;56723;42.694;23.286;2023-02-19T04:47:00;5.75;;;2.40;;
69523;SDS011;56723;42.694;23.286;2023-02-19T04:49:27;4.03;;;2.70;;
69523;SDS011;56723;42.694;23.286;2023-02-19T04:51:54;4.83;;;3.00;;
69523;SDS011;56723;42.694;23.286;2023-02-19T05:59:23;15.47;;;9.00;;
69523;SDS011;56723;42.694;23.286;2023-02-19T06:01:52;13.75;;;7.85;;
69523;SDS011;56723;42.694;23.286;2023-02-19T06:04:20;13.45;;;7.60;;
69523;SDS011;56723;42.694;23.286;2023-02-19T06:06:48;13.77;;;6.70;;
69523;SDS011;56723;42.694;23.286;2023-02-19T06:09:16;9.03;;;6.20;;
69523;SDS011;56723;42.694;23.286;2023-02-19T06:11:43;9.70;;;6.50;;
69523;SDS011;56723;42.694;23.286;2023-02-19T06:14:13;11.53;;;6.03;;
69523;SDS011;56723;42.694;23.286;2023-02-19T06:16:40;13.60;;;7.23;;
69523;SDS011;56723;42.694;23.286;2023-02-19T06:19:07;9.70;;;7.17;;
69523;SDS011;56723;42.694;23.286;2023-02-19T06:21:35;10.10;;;6.90;;
69523;SDS011;56723;42.694;23.286;2023-02-19T06:24:06;10.87;;;6.03;;
69523;SDS011;56723;42.694;23.286;2023-02-19T06:26:33;13.20;;;7.70;;
69523;SDS011;56723;42.694;23.286;2023-02-19T06:29:01;10.93;;;6.90;;
69523;SDS011;56723;42.694;23.286;2023-02-19T06:31:28;13.27;;;7.00;;
69523;SDS011;56723;42.694;23.286;2023-02-19T06:33:55;10.57;;;6.70;;
69523;SDS011;56723;42.694;23.286;2023-02-19T06:36:22;9.03;;;5.40;;
69523;SDS011;56723;42.694;23.286;2023-02-19T06:38:50;9.50;;;5.07;;
69523;SDS011;56723;42.694;23.286;2023-02-19T06:41:17;10.83;;;6.30;;
69523;SDS011;56723;42.694;23.286;2023-02-19T06:43:44;11.88;;;6.60;;
69523;SDS011;56723;42.694;23.286;2023-02-19T06:46:12;11.00;;;7.03;;
69523;SDS011;56723;42.694;23.286;2023-02-19T06:48:39;11.45;;;6.03;;
69523;SDS011;56723;42.694;23.286;2023-02-19T06:51:10;7.75;;;5.47;;
69523;SDS011;56723;42.694;23.286;2023-02-19T07:30:33;12.17;;;4.53;;
69523;SDS011;56723;42.694;23.286;2023-02-19T07:33:01;9.10;;;4.47;;
69523;SDS011;56723;42.694;23.286;2023-02-19T07:35:28;9.37;;;4.00;;
69523;SDS011;56723;42.694;23.286;2023-02-19T07:37:55;9.17;;;4.10;;
69523;SDS011;56723;42.694;23.286;2023-02-19T07:40:21;7.90;;;3.80;;
69523;SDS011;56723;42.694;23.286;2023-02-19T07:42:48;8.30;;;3.90;;
69523;SDS011;56723;42.694;23.286;2023-02-19T07:45:15;12.10;;;4.77;;
69523;SDS011;56723;42.694;23.286;2023-02-19T07:47:45;13.77;;;4.70;;
69523;SDS011;56723;42.694;23.286;2023-02-19T07:50:12;10.73;;;4.00;;
69523;SDS011;56723;42.694;23.286;2023-02-19T07:52:42;7.88;;;4.57;;
69523;SDS011;56723;42.694;23.286;2023-02-19T07:55:09;6.90;;;4.10;;
69523;SDS011;56723;42.694;23.286;2023-02-19T07:57:36;6.78;;;3.78;;
69523;SDS011;56723;42.694;23.286;2023-02-19T08:00:03;8.82;;;3.80;;
69523;SDS011;56723;42.694;23.286;2023-02-19T08:02:37;7.65;;;3.90;;
69523;SDS011;56723;42.694;23.286;2023-02-19T08:05:23;7.32;;;4.07;;
69523;SDS011;56723;42.694;23.286;2023-02-19T08:07:50;6.35;;;4.22;;
69523;SDS011;56723;42.694;23.286;2023-02-19T08:10:17;8.13;;;4.60;;
69523;SDS011;56723;42.694;23.286;2023-02-19T08:13:02;8.98;;;4.40;;
69523;SDS011;56723;42.694;23.286;2023-02-19T08:15:45;8.55;;;4.00;;
69523;SDS011;56723;42.694;23.286;2023-02-19T08:18:12;7.22;;;4.68;;
69523;SDS011;56723;42.694;23.286;2023-02-19T08:20:41;11.30;;;4.50;;
69523;SDS011;56723;42.694;23.286;2023-02-19T08:23:08;7.30;;;3.75;;
69523;SDS011;56723;42.694;23.286;2023-02-19T08:25:36;6.80;;;3.50;;
69523;SDS011;56723;42.694;23.286;2023-02-19T08:28:04;7.55;;;4.10;;
69523;SDS011;56723;42.694;23.286;2023-02-19T08:30:32;5.90;;;4.33;;
69523;SDS011;56723;42.694;23.286;2023-02-19T08:33:00;6.22;;;3.85;;
69523;SDS011;56723;42.694;23.286;2023-02-19T08:35:28;6.78;;;4.05;;
69523;SDS011;56723;42.694;23.286;2023-02-19T08:37:58;7.65;;;4.32;;
69523;SDS011;56723;42.694;23.286;2023-02-19T08:40:25;5.65;;;3.78;;
69523;SDS011;56723;42.694;23.286;2023-02-19T08:42:52;7.28;;;3.88;;
69523;SDS011;56723;42.694;23.286;2023-02-19T08:45:18;6.38;;;3.50;;
69523;SDS011;56723;42.694;23.286;2023-02-19T08:47:45;6.93;;;4.05;;
69523;SDS011;56723;42.694;23.286;2023-02-19T08:50:12;4.07;;;2.58;;
69523;SDS011;56723;42.694;23.286;2023-02-19T08:52:39;4.40;;;2.40;;
69523;SDS011;56723;42.694;23.286;2023-02-19T08:55:06;5.00;;;2.30;;
69523;SDS011;56723;42.694;23.286;2023-02-19T08:57:34;5.30;;;2.97;;
69523;SDS011;56723;42.694;23.286;2023-02-19T09:00:03;5.18;;;2.97;;
69523;SDS011;56723;42.694;23.286;2023-02-19T09:02:32;4.70;;;3.53;;
69523;SDS011;56723;42.694;23.286;2023-02-19T09:04:59;5.50;;;3.90;;
69523;SDS011;56723;42.694;23.286;2023-02-19T09:07:26;7.35;;;4.15;;
69523;SDS011;56723;42.694;23.286;2023-02-19T09:09:53;6.63;;;3.25;;
69523;SDS011;56723;42.694;23.286;2023-02-19T09:12:20;3.42;;;2.35;;
69523;SDS011;56723;42.694;23.286;2023-02-19T09:14:49;3.87;;;2.50;;
69523;SDS011;56723;42.694;23.286;2023-02-19T09:17:18;5.43;;;2.95;;
69523;SDS011;56723;42.694;23.286;2023-02-19T09:19:45;4.03;;;2.72;;
69523;SDS011;56723;42.694;23.286;2023-02-19T09:22:15;5.10;;;3.58;;
69523;SDS011;56723;42.694;23.286;2023-02-19T09:24:42;4.10;;;3.22;;
69523;SDS011;56723;42.694;23.286;2023-02-19T09:27:16;3.88;;;2.50;;
69523;SDS011;56723;42.694;23.286;2023-02-19T09:29:44;2.55;;;2.10;;
69523;SDS011;56723;42.694;23.286;2023-02-19T09:32:12;4.50;;;2.38;;
69523;SDS011;56723;42.694;23.286;2023-02-19T09:34:40;5.18;;;2.05;;
69523;SDS011;56723;42.694;23.286;2023-02-19T09:37:07;3.65;;;1.90;;
69523;SDS011;56723;42.694;23.286;2023-02-19T09:39:34;6.43;;;2.78;;
69523;SDS011;56723;42.694;23.286;2023-02-19T09:44:58;3.75;;;2.13;;
69523;SDS011;56723;42.694;23.286;2023-02-19T09:47:28;6.47;;;2.78;;
69523;SDS011;56723;42.694;23.286;2023-02-19T09:50:06;5.28;;;3.17;;
69523;SDS011;56723;42.694;23.286;2023-02-19T09:55:03;7.60;;;3.42;;
69523;SDS011;56723;42.694;23.286;2023-02-19T09:57:39;3.88;;;2.08;;
69523;SDS011;56723;42.694;23.286;2023-02-19T10:03:33;4.13;;;2.45;;
69523;SDS011;56723;42.694;23.286;2023-02-19T10:05:47;4.60;;;2.97;;
69523;SDS011;56723;42.694;23.286;2023-02-19T10:08:16;5.22;;;2.53;;
69523;SDS011;56723;42.694;23.286;2023-02-19T10:10:45;5.75;;;2.40;;
69523;SDS011;56723;42.694;23.286;2023-02-19T10:13:20;3.70;;;2.42;;
69523;SDS011;56723;42.694;23.286;2023-02-19T10:15:56;7.32;;;3.20;;
69523;SDS011;56723;42.694;23.286;2023-02-19T10:18:25;5.60;;;3.05;;
69523;SDS011;56723;42.694;23.286;2023-02-19T10:20:55;4.53;;;2.35;;
69523;SDS011;56723;42.694;23.286;2023-02-19T10:23:23;4.65;;;2.72;;
69523;SDS011;56723;42.694;23.286;2023-02-19T10:25:52;5.77;;;2.80;;
69523;SDS011;56723;42.694;23.286;2023-02-19T10:28:23;5.65;;;2.70;;
69523;SDS011;56723;42.694;23.286;2023-02-19T10:30:56;3.47;;;2.22;;
69523;SDS011;56723;42.694;23.286;2023-02-19T10:33:25;7.32;;;2.80;;
69523;SDS011;56723;42.694;23.286;2023-02-19T10:35:56;4.82;;;3.17;;
69523;SDS011;56723;42.694;23.286;2023-02-19T10:41:33;5.68;;;2.30;;
69523;SDS011;56723;42.694;23.286;2023-02-19T10:43:54;4.28;;;2.13;;
69523;SDS011;56723;42.694;23.286;2023-02-19T10:46:22;4.45;;;2.05;;
69523;SDS011;56723;42.694;23.286;2023-02-19T10:48:59;4.05;;;2.50;;
69523;SDS011;56723;42.694;23.286;2023-02-19T10:51:30;5.35;;;2.22;;
69523;SDS011;56723;42.694;23.286;2023-02-19T10:54:24;6.68;;;2.92;;
69523;SDS011;56723;42.694;23.286;2023-02-19T10:57:07;6.40;;;2.40;;
69523;SDS011;56723;42.694;23.286;2023-02-19T10:59:52;5.90;;;2.55;;
69523;SDS011;56723;42.694;23.286;2023-02-19T11:02:24;4.78;;;2.70;;
69523;SDS011;56723;42.694;23.286;2023-02-19T11:07:35;4.40;;;2.90;;
69523;SDS011;56723;42.694;23.286;2023-02-19T11:10:03;4.72;;;2.10;;
69523;SDS011;56723;42.694;23.286;2023-02-19T11:12:32;3.78;;;2.95;;
69523;SDS011;56723;42.694;23.286;2023-02-19T11:15:20;4.43;;;2.43;;
69523;SDS011;56723;42.694;23.286;2023-02-19T11:17:54;4.50;;;2.60;;
69523;SDS011;56723;42.694;23.286;2023-02-19T11:20:22;3.67;;;2.25;;
69523;SDS011;56723;42.694;23.286;2023-02-19T11:22:49;4.38;;;2.22;;
69523;SDS011;56723;42.694;23.286;2023-02-19T11:33:12;3.58;;;1.95;;
69523;SDS011;56723;42.694;23.286;2023-02-19T11:35:48;3.65;;;2.10;;
69523;SDS011;56723;42.694;23.286;2023-02-19T11:38:20;4.32;;;2.28;;
69523;SDS011;56723;42.694;23.286;2023-02-19T11:47:18;3.70;;;2.03;;
69523;SDS011;56723;42.694;23.286;2023-02-19T11:54:19;3.78;;;2.05;;
69523;SDS011;56723;42.694;23.286;2023-02-19T11:57:02;3.83;;;1.50;;
69523;SDS011;56723;42.694;23.286;2023-02-19T11:59:44;5.55;;;2.65;;
69523;SDS011;56723;42.694;23.286;2023-02-19T12:02:22;5.00;;;2.08;;
69523;SDS011;56723;42.694;23.286;2023-02-19T12:05:03;5.80;;;2.20;;
69523;SDS011;56723;42.694;23.286;2023-02-19T12:19:00;2.47;;;1.38;;
69523;SDS011;56723;42.694;23.286;2023-02-19T12:21:57;3.30;;;1.45;;
69523;SDS011;56723;42.694;23.286;2023-02-19T12:33:00;6.47;;;1.35;;
69523;SDS011;56723;42.694;23.286;2023-02-19T12:38:17;3.97;;;1.75;;
69523;SDS011;56723;42.694;23.286;2023-02-19T12:44:14;3.28;;;1.48;;
69523;SDS011;56723;42.694;23.286;2023-02-19T12:49:39;3.63;;;1.20;;
69523;SDS011;56723;42.694;23.286;2023-02-19T12:54:52;3.30;;;1.55;;
69523;SDS011;56723;42.694;23.286;2023-02-19T12:57:24;2.78;;;1.85;;
69523;SDS011;56723;42.694;23.286;2023-02-19T13:03:12;3.63;;;3.28;;
69523;SDS011;56723;42.694;23.286;2023-02-19T13:11:31;3.03;;;2.03;;
69523;SDS011;56723;42.694;23.286;2023-02-19T13:14:44;2.28;;;1.40;;
69523;SDS011;56723;42.694;23.286;2023-02-19T13:17:20;2.10;;;1.60;;
69523;SDS011;56723;42.694;23.286;2023-02-19T13:28:42;3.92;;;2.03;;
69523;SDS011;56723;42.694;23.286;2023-02-19T13:36:52;2.42;;;1.55;;
69523;SDS011;56723;42.694;23.286;2023-02-19T13:39:20;3.63;;;3.15;;
69523;SDS011;56723;42.694;23.286;2023-02-19T13:41:49;8.73;;;6.30;;
69523;SDS011;56723;42.694;23.286;2023-02-19T13:44:19;2.08;;;1.58;;
69523;SDS011;56723;42.694;23.286;2023-02-19T13:46:54;5.55;;;3.67;;
69523;SDS011;56723;42.694;23.286;2023-02-19T13:49:23;5.57;;;2.42;;
69523;SDS011;56723;42.694;23.286;2023-02-19T13:52:04;3.75;;;2.17;;
69523;SDS011;56723;42.694;23.286;2023-02-19T14:01:17;2.90;;;1.88;;
69523;SDS011;56723;42.694;23.286;2023-02-19T14:03:46;4.93;;;2.20;;
69523;SDS011;56723;42.694;23.286;2023-02-19T14:06:19;3.88;;;2.05;;
69523;SDS011;56723;42.694;23.286;2023-02-19T14:12:01;4.78;;;2.17;;
69523;SDS011;56723;42.694;23.286;2023-02-19T14:19:44;3.92;;;1.90;;
69523;SDS011;56723;42.694;23.286;2023-02-19T14:28:01;5.85;;;1.92;;
69523;SDS011;56723;42.694;23.286;2023-02-19T14:30:56;2.58;;;1.60;;
69523;SDS011;56723;42.694;23.286;2023-02-19T14:33:25;4.93;;;2.35;;
69523;SDS011;56723;42.694;23.286;2023-02-19T14:36:05;5.20;;;2.10;;
69523;SDS011;56723;42.694;23.286;2023-02-19T14:41:23;4.25;;;2.15;;
69523;SDS011;56723;42.694;23.286;2023-02-19T14:43:53;5.10;;;2.70;;
69523;SDS011;56723;42.694;23.286;2023-02-19T14:46:28;8.43;;;4.10;;
69523;SDS011;56723;42.694;23.286;2023-02-19T14:49:12;6.38;;;2.45;;
69523;SDS011;56723;42.694;23.286;2023-02-19T14:51:48;4.13;;;2.03;;
69523;SDS011;56723;42.694;23.286;2023-02-19T14:57:18;5.53;;;2.20;;
69523;SDS011;56723;42.694;23.286;2023-02-19T14:59:51;6.03;;;2.13;;
69523;SDS011;56723;42.694;23.286;2023-02-19T15:02:20;5.30;;;2.70;;
69523;SDS011;56723;42.694;23.286;2023-02-19T15:07:34;4.50;;;2.70;;
69523;SDS011;56723;42.694;23.286;2023-02-19T15:10:02;8.80;;;3.75;;
69523;SDS011;56723;42.694;23.286;2023-02-19T15:12:37;10.90;;;5.35;;
69523;SDS011;56723;42.694;23.286;2023-02-19T15:15:15;6.53;;;3.22;;
69523;SDS011;56723;42.694;23.286;2023-02-19T15:17:47;5.32;;;3.75;;
69523;SDS011;56723;42.694;23.286;2023-02-19T15:20:20;8.40;;;4.32;;
69523;SDS011;56723;42.694;23.286;2023-02-19T15:22:50;6.15;;;3.47;;
69523;SDS011;56723;42.694;23.286;2023-02-19T15:25:19;8.07;;;4.07;;
69523;SDS011;56723;42.694;23.286;2023-02-19T15:27:47;6.50;;;3.38;;
69523;SDS011;56723;42.694;23.286;2023-02-19T15:30:17;8.52;;;3.90;;
69523;SDS011;56723;42.694;23.286;2023-02-19T15:32:50;7.22;;;4.10;;
69523;SDS011;56723;42.694;23.286;2023-02-19T15:35:20;11.05;;;4.63;;
69523;SDS011;56723;42.694;23.286;2023-02-19T15:37:48;7.68;;;4.78;;
69523;SDS011;56723;42.694;23.286;2023-02-19T15:40:17;9.80;;;5.25;;
69523;SDS011;56723;42.694;23.286;2023-02-19T15:42:45;6.68;;;3.40;;
69523;SDS011;56723;42.694;23.286;2023-02-19T15:50:38;10.07;;;4.22;;
69523;SDS011;56723;42.694;23.286;2023-02-19T15:53:17;8.43;;;4.32;;
69523;SDS011;56723;42.694;23.286;2023-02-19T16:00:59;16.15;;;10.27;;
69523;SDS011;56723;42.694;23.286;2023-02-19T16:03:29;11.90;;;7.13;;
69523;SDS011;56723;42.694;23.286;2023-02-19T16:13:49;11.07;;;5.57;;
69523;SDS011;56723;42.694;23.286;2023-02-19T16:16:26;12.90;;;5.57;;
69523;SDS011;56723;42.694;23.286;2023-02-19T16:18:57;16.95;;;9.35;;
69523;SDS011;56723;42.694;23.286;2023-02-19T16:21:25;13.38;;;7.75;;
69523;SDS011;56723;42.694;23.286;2023-02-19T16:26:29;14.45;;;7.57;;
69523;SDS011;56723;42.694;23.286;2023-02-19T16:29:10;14.75;;;7.75;;
69523;SDS011;56723;42.694;23.286;2023-02-19T16:31:48;15.18;;;8.10;;
69523;SDS011;56723;42.694;23.286;2023-02-19T16:43:22;10.68;;;5.28;;
69523;SDS011;56723;42.694;23.286;2023-02-19T16:45:32;11.73;;;7.43;;
69523;SDS011;56723;42.694;23.286;2023-02-19T16:47:59;13.20;;;7.82;;
69523;SDS011;56723;42.694;23.286;2023-02-19T16:50:26;13.43;;;8.18;;
69523;SDS011;56723;42.694;23.286;2023-02-19T16:52:54;15.38;;;8.10;;
69523;SDS011;56723;42.694;23.286;2023-02-19T16:57:49;11.02;;;7.18;;
69523;SDS011;56723;42.694;23.286;2023-02-19T17:00:20;10.40;;;5.13;;
69523;SDS011;56723;42.694;23.286;2023-02-19T17:02:53;10.48;;;7.35;;
69523;SDS011;56723;42.694;23.286;2023-02-19T17:05:22;18.27;;;11.02;;
69523;SDS011;56723;42.694;23.286;2023-02-19T17:10:19;13.05;;;6.90;;
69523;SDS011;56723;42.694;23.286;2023-02-19T17:12:51;15.98;;;9.10;;
69523;SDS011;56723;42.694;23.286;2023-02-19T17:15:20;12.77;;;6.35;;
69523;SDS011;56723;42.694;23.286;2023-02-19T17:17:47;10.02;;;5.82;;
69523;SDS011;56723;42.694;23.286;2023-02-19T17:22:42;17.13;;;10.63;;
69523;SDS011;56723;42.694;23.286;2023-02-19T17:25:09;22.77;;;12.63;;
69523;SDS011;56723;42.694;23.286;2023-02-19T17:27:36;16.50;;;10.43;;
69523;SDS011;56723;42.694;23.286;2023-02-19T17:30:08;15.48;;;8.75;;
69523;SDS011;56723;42.694;23.286;2023-02-19T17:32:39;14.10;;;7.78;;
69523;SDS011;56723;42.694;23.286;2023-02-19T17:35:06;9.88;;;4.28;;
69523;SDS011;56723;42.694;23.286;2023-02-19T17:37:48;8.60;;;4.28;;
69523;SDS011;56723;42.694;23.286;2023-02-19T17:40:20;7.38;;;3.60;;
69523;SDS011;56723;42.694;23.286;2023-02-19T17:42:59;8.73;;;4.20;;
69523;SDS011;56723;42.694;23.286;2023-02-19T17:45:26;5.78;;;3.45;;
69523;SDS011;56723;42.694;23.286;2023-02-19T17:47:52;7.72;;;4.43;;
69523;SDS011;56723;42.694;23.286;2023-02-19T17:50:22;10.48;;;6.82;;
69523;SDS011;56723;42.694;23.286;2023-02-19T17:52:51;14.15;;;7.85;;
69523;SDS011;56723;42.694;23.286;2023-02-19T17:55:18;16.08;;;9.02;;
69523;SDS011;56723;42.694;23.286;2023-02-19T17:57:46;20.63;;;12.75;;
69523;SDS011;56723;42.694;23.286;2023-02-19T18:00:15;11.20;;;7.97;;
69523;SDS011;56723;42.694;23.286;2023-02-19T18:02:44;13.95;;;8.38;;
69523;SDS011;56723;42.694;23.286;2023-02-19T18:05:11;10.82;;;7.00;;
69523;SDS011;56723;42.694;23.286;2023-02-19T18:07:38;11.68;;;8.05;;
69523;SDS011;56723;42.694;23.286;2023-02-19T18:10:06;14.18;;;8.50;;
69523;SDS011;56723;42.694;23.286;2023-02-19T18:12:34;18.90;;;11.07;;
69523;SDS011;56723;42.694;23.286;2023-02-19T18:15:01;13.70;;;8.40;;
69523;SDS011;56723;42.694;23.286;2023-02-19T18:17:27;14.38;;;10.38;;
69523;SDS011;56723;42.694;23.286;2023-02-19T18:19:55;13.45;;;7.38;;
69523;SDS011;56723;42.694;23.286;2023-02-19T18:22:21;16.27;;;11.88;;
69523;SDS011;56723;42.694;23.286;2023-02-19T18:24:51;10.43;;;6.28;;
69523;SDS011;56723;42.694;23.286;2023-02-19T18:27:19;14.73;;;9.27;;
69523;SDS011;56723;42.694;23.286;2023-02-19T18:29:53;16.80;;;12.25;;
69523;SDS011;56723;42.694;23.286;2023-02-19T18:32:21;9.55;;;6.28;;
69523;SDS011;56723;42.694;23.286;2023-02-19T18:34:50;10.02;;;7.90;;
69523;SDS011;56723;42.694;23.286;2023-02-19T18:37:19;10.43;;;6.03;;
69523;SDS011;56723;42.694;23.286;2023-02-19T18:39:47;11.75;;;6.72;;
69523;SDS011;56723;42.694;23.286;2023-02-19T18:42:14;11.77;;;7.13;;
69523;SDS011;56723;42.694;23.286;2023-02-19T18:44:41;20.88;;;10.20;;
69523;SDS011;56723;42.694;23.286;2023-02-19T18:47:08;17.40;;;10.27;;
69523;SDS011;56723;42.694;23.286;2023-02-19T18:49:36;15.02;;;9.43;;
69523;SDS011;56723;42.694;23.286;2023-02-19T18:52:03;19.58;;;9.43;;
69523;SDS011;56723;42.694;23.286;2023-02-19T18:54:31;17.73;;;10.85;;
69523;SDS011;56723;42.694;23.286;2023-02-19T18:56:58;23.73;;;11.65;;
69523;SDS011;56723;42.694;23.286;2023-02-19T18:59:34;23.43;;;13.33;;
69523;SDS011;56723;42.694;23.286;2023-02-19T19:02:01;23.88;;;15.35;;
69523;SDS011;56723;42.694;23.286;2023-02-19T19:04:30;30.98;;;17.30;;
69523;SDS011;56723;42.694;23.286;2023-02-19T19:06:57;27.38;;;16.45;;
69523;SDS011;56723;42.694;23.286;2023-02-19T19:09:24;27.50;;;17.70;;
69523;SDS011;56723;42.694;23.286;2023-02-19T19:11:51;23.13;;;14.98;;
69523;SDS011;56723;42.694;23.286;2023-02-19T19:14:18;29.17;;;19.05;;
69523;SDS011;56723;42.694;23.286;2023-02-19T19:16:45;21.80;;;13.55;;
69523;SDS011;56723;42.694;23.286;2023-02-19T19:19:12;18.58;;;13.18;;
69523;SDS011;56723;42.694;23.286;2023-02-19T19:21:40;17.67;;;10.48;;
69523;SDS011;56723;42.694;23.286;2023-02-19T19:24:07;11.27;;;7.50;;
69523;SDS011;56723;42.694;23.286;2023-02-19T19:26:34;14.10;;;7.70;;
69523;SDS011;56723;42.694;23.286;2023-02-19T19:29:01;12.75;;;6.82;;
69523;SDS011;56723;42.694;23.286;2023-02-19T19:31:32;9.98;;;6.57;;
69523;SDS011;56723;42.694;23.286;2023-02-19T19:34:01;10.98;;;6.70;;
69523;SDS011;56723;42.694;23.286;2023-02-19T19:36:28;12.77;;;8.18;;